Time;durP1;ratioP1;P1;durP2;ratioP2;P2;SDS_P1;SDS_P2;PMS_P1;PMS_P2;Temp;Humidity;BMP_temperature;BMP_pressure;BME280_temperature;BME280_humidity;BME280_pressure;Samples;Min_cycle;Max_cycle;Signal;HPM_P1;HPM_P2
2023/09/13 00:01:45;;;;;;;6.95;4.18;;;;;;;20.00;70.90;100077.69;5076954;28;20036;-66
2023/09/13 00:04:11;;;;;;;4.45;4.05;;;;;;;20.03;70.93;100084.50;5077345;28;20086;-66
2023/09/13 00:06:37;;;;;;;5.18;3.90;;;;;;;20.00;71.05;100082.25;5076988;28;20035;-64
2023/09/13 00:09:03;;;;;;;4.07;3.67;;;;;;;19.98;70.87;100085.16;5077102;28;20326;-64
2023/09/13 00:11:29;;;;;;;4.72;4.00;;;;;;;19.95;70.97;100082.06;5076138;28;20040;-66
2023/09/13 00:13:54;;;;;;;5.47;3.65;;;;;;;19.88;71.16;100078.59;5077027;28;20257;-66
2023/09/13 00:16:20;;;;;;;5.45;3.63;;;;;;;19.83;71.52;100079.22;5076623;28;20047;-66
2023/09/13 00:18:45;;;;;;;4.97;3.75;;;;;;;19.92;71.12;100088.69;5076575;28;20082;-66
2023/09/13 00:21:11;;;;;;;7.15;4.35;;;;;;;19.89;71.29;100086.44;5076504;28;20048;-64
2023/09/13 00:23:37;;;;;;;5.25;3.83;;;;;;;19.86;71.55;100089.53;5076960;28;20105;-66
2023/09/13 00:26:03;;;;;;;4.60;3.50;;;;;;;19.87;71.84;100088.50;5076653;28;20037;-66
2023/09/13 00:28:28;;;;;;;5.50;3.45;;;;;;;19.90;71.70;100082.72;5076658;28;20453;-64
2023/09/13 00:30:53;;;;;;;5.68;3.63;;;;;;;19.96;71.31;100092.59;5076593;28;20029;-65
2023/09/13 00:33:19;;;;;;;5.07;3.42;;;;;;;19.97;70.80;100083.50;5076414;28;20025;-64
2023/09/13 00:35:45;;;;;;;4.47;3.95;;;;;;;20.07;70.57;100094.59;5076744;28;20093;-64
2023/09/13 00:38:11;;;;;;;6.82;3.75;;;;;;;20.12;70.52;100093.97;5077266;28;20306;-64
2023/09/13 00:40:36;;;;;;;4.57;3.22;;;;;;;20.23;70.20;100090.59;5076651;28;20419;-64
2023/09/13 00:43:02;;;;;;;6.10;3.70;;;;;;;20.33;69.78;100090.09;5075767;28;20179;-64
2023/09/13 00:45:31;;;;;;;4.30;3.70;;;;;;;20.42;69.74;100091.53;5076434;28;20035;-66
2023/09/13 00:47:57;;;;;;;5.60;4.03;;;;;;;20.45;69.35;100088.41;5076082;28;20024;-64
2023/09/13 00:50:23;;;;;;;4.40;3.75;;;;;;;20.42;69.53;100091.53;5075883;28;20093;-64
2023/09/13 00:52:50;;;;;;;4.78;3.58;;;;;;;20.49;69.43;100091.47;5067296;28;20041;-66
2023/09/13 00:55:18;;;;;;;4.05;3.50;;;;;;;20.51;68.28;100094.78;5056486;28;20116;-64
2023/09/13 00:57:44;;;;;;;5.60;3.53;;;;;;;20.51;68.16;100097.47;5056063;28;20050;-67
2023/09/13 01:00:10;;;;;;;4.60;4.20;;;;;;;20.39;68.89;100065.06;5055830;28;20045;-66
2023/09/13 01:02:40;;;;;;;5.43;3.55;;;;;;;20.56;68.84;100097.63;5056322;28;20070;-67
2023/09/13 01:05:11;;;;;;;4.22;3.83;;;;;;;20.61;68.77;100098.63;5056147;28;20327;-66
2023/09/13 01:07:40;;;;;;;4.18;3.53;;;;;;;20.60;68.84;100096.97;5055744;28;20067;-66
2023/09/13 01:10:07;;;;;;;5.07;4.35;;;;;;;20.56;69.03;100103.84;5056118;28;20040;-67
2023/09/13 01:12:33;;;;;;;4.35;3.88;;;;;;;20.60;68.99;100107.75;5055597;28;20075;-66
2023/09/13 01:14:59;;;;;;;6.57;4.00;;;;;;;20.57;68.79;100100.09;5055712;28;20108;-67
2023/09/13 01:17:38;;;;;;;5.40;4.00;;;;;;;20.50;69.35;100096.63;5055310;28;20105;-67
2023/09/13 01:20:09;;;;;;;5.40;4.00;;;;;;;20.50;69.74;100098.50;5055398;28;20048;-67
2023/09/13 01:23:16;;;;;;;4.43;3.85;;;;;;;20.57;69.50;100099.28;5055819;28;20036;-64
2023/09/13 01:26:01;;;;;;;5.05;3.55;;;;;;;20.52;68.78;100097.25;5055637;28;20276;-66
2023/09/13 01:28:27;;;;;;;6.22;4.25;;;;;;;20.48;68.67;100098.72;5057215;28;20033;-64
2023/09/13 01:30:53;;;;;;;5.13;3.83;;;;;;;20.49;68.74;100097.69;5056562;28;20064;-66
2023/09/13 01:33:19;;;;;;;5.47;4.32;;;;;;;20.46;69.44;100097.28;5056389;28;20122;-66
2023/09/13 01:35:44;;;;;;;5.75;4.38;;;;;;;20.36;69.44;100100.44;5055676;28;20032;-64
2023/09/13 01:38:09;;;;;;;5.13;3.97;;;;;;;20.36;68.86;100097.75;5055843;28;20051;-66
2023/09/13 01:40:40;;;;;;;6.72;4.47;;;;;;;20.36;68.33;100100.44;5055399;28;20237;-64
2023/09/13 01:43:07;;;;;;;4.32;3.67;;;;;;;20.19;67.82;100104.69;5055327;28;20033;-66
2023/09/13 01:45:34;;;;;;;7.97;4.60;;;;;;;20.19;68.40;100108.19;5055184;28;20113;-63
2023/09/13 01:48:01;;;;;;;5.32;3.80;;;;;;;20.14;68.09;100104.50;5055476;28;20094;-64
2023/09/13 01:50:27;;;;;;;5.32;3.90;;;;;;;20.12;68.77;100111.97;5055341;28;20150;-65
2023/09/13 01:52:52;;;;;;;6.75;4.10;;;;;;;20.07;69.32;100113.41;5073384;28;20044;-66
2023/09/13 01:55:18;;;;;;;7.65;4.80;;;;;;;20.04;69.68;100105.78;5074395;28;20234;-66
2023/09/13 01:57:43;;;;;;;6.45;4.78;;;;;;;20.09;70.65;100105.16;5075500;28;20044;-67
2023/09/13 02:00:09;;;;;;;4.68;3.75;;;;;;;20.02;68.60;100101.66;5076086;28;20053;-64
2023/09/13 02:02:35;;;;;;;5.93;4.45;;;;;;;20.00;68.20;100103.75;5076141;28;20100;-64
2023/09/13 02:05:00;;;;;;;7.82;5.18;;;;;;;19.92;69.89;100098.63;5075998;28;20062;-64
2023/09/13 02:07:26;;;;;;;5.90;4.55;;;;;;;19.90;70.96;100106.88;5074981;28;20604;-64
2023/09/13 02:09:52;;;;;;;4.70;3.88;;;;;;;19.88;69.20;100100.91;5075291;28;20040;-64
2023/09/13 02:12:17;;;;;;;6.63;4.05;;;;;;;19.87;68.75;100106.50;5077014;28;20033;-63
2023/09/13 02:14:43;;;;;;;6.85;4.32;;;;;;;19.85;69.03;100104.03;5075804;28;20418;-67
2023/09/13 02:17:09;;;;;;;5.07;4.00;;;;;;;19.83;67.92;100102.59;5075083;28;20036;-64
2023/09/13 02:19:35;;;;;;;5.45;4.53;;;;;;;19.77;69.10;100094.34;5074489;28;20048;-64
2023/09/13 02:22:01;;;;;;;4.80;3.83;;;;;;;19.77;67.96;100106.94;5075539;28;20044;-64
2023/09/13 02:24:26;;;;;;;5.70;4.05;;;;;;;19.68;68.07;100100.13;5075245;28;20041;-66
2023/09/13 02:26:58;;;;;;;5.30;3.85;;;;;;;19.69;68.16;100107.97;5074807;28;20264;-64
2023/09/13 02:29:24;;;;;;;4.30;3.67;;;;;;;19.63;69.04;100108.00;5075055;28;20037;-66
2023/09/13 02:31:50;;;;;;;5.38;3.95;;;;;;;19.59;70.67;100104.09;5074546;28;20057;-64
2023/09/13 02:34:16;;;;;;;5.28;4.15;;;;;;;19.57;69.57;100111.53;5074791;28;20032;-64
2023/09/13 02:36:41;;;;;;;4.68;3.80;;;;;;;19.57;68.87;100109.69;5074648;28;20039;-64
2023/09/13 02:39:31;;;;;;;6.15;3.50;;;;;;;19.59;69.12;100114.84;5074876;28;20354;-64
2023/09/13 02:41:57;;;;;;;7.15;4.22;;;;;;;19.42;69.59;100111.75;5075175;28;20043;-64
2023/09/13 02:44:22;;;;;;;6.30;3.60;;;;;;;19.25;69.28;100119.44;5074921;28;20041;-67
2023/09/13 02:46:48;;;;;;;4.65;4.07;;;;;;;19.27;70.22;100113.84;5074708;28;20260;-64
2023/09/13 02:49:13;;;;;;;5.82;4.22;;;;;;;19.29;70.48;100112.63;5074289;28;20268;-64
2023/09/13 02:51:38;;;;;;;7.50;4.63;;;;;;;19.33;70.37;100111.16;5065322;28;20091;-63
2023/09/13 02:54:04;;;;;;;5.88;4.28;;;;;;;19.38;72.14;100114.03;5054655;28;20029;-66
2023/09/13 02:56:30;;;;;;;8.05;4.40;;;;;;;19.39;69.74;100121.06;5054537;28;20095;-64
2023/09/13 02:58:55;;;;;;;4.82;4.35;;;;;;;19.28;69.72;100121.69;5055546;28;20049;-66
2023/09/13 03:01:22;;;;;;;8.88;4.85;;;;;;;19.27;70.42;100116.53;5054846;28;20037;-63
2023/09/13 03:03:47;;;;;;;7.20;4.90;;;;;;;19.28;70.50;100113.66;5055307;28;20052;-66
2023/09/13 03:06:15;;;;;;;7.32;5.05;;;;;;;19.26;70.63;100110.34;5055558;28;20048;-64
2023/09/13 03:08:41;;;;;;;7.75;5.22;;;;;;;19.32;70.31;100111.38;5058685;28;20304;-66
2023/09/13 03:11:10;;;;;;;8.00;4.20;;;;;;;19.31;69.43;100110.53;5058562;28;20032;-63
2023/09/13 03:13:35;;;;;;;6.13;4.90;;;;;;;19.29;68.28;100119.84;5058661;28;20085;-64
2023/09/13 03:16:01;;;;;;;12.07;5.40;;;;;;;19.29;69.77;100119.84;5058137;28;20071;-64
2023/09/13 03:18:26;;;;;;;6.22;4.78;;;;;;;19.26;70.00;100122.94;5058167;28;20033;-66
2023/09/13 03:20:52;;;;;;;7.00;5.20;;;;;;;19.22;70.14;100116.34;5058088;28;20230;-66
2023/09/13 03:23:17;;;;;;;5.80;5.10;;;;;;;19.20;70.21;100121.09;5057846;28;20035;-66
2023/09/13 03:25:42;;;;;;;8.23;5.05;;;;;;;19.18;70.27;100118.63;5057992;28;20029;-66
2023/09/13 03:28:08;;;;;;;8.80;4.80;;;;;;;19.20;70.14;100121.94;5058176;28;20033;-64
2023/09/13 03:30:34;;;;;;;11.57;5.88;;;;;;;19.03;70.86;100120.72;5058046;28;20029;-66
2023/09/13 03:33:00;;;;;;;11.60;5.93;;;;;;;18.98;71.65;100118.66;5057895;28;20469;-64
2023/09/13 03:35:25;;;;;;;9.02;5.65;;;;;;;19.07;71.62;100127.31;5057858;28;20053;-67
2023/09/13 03:37:50;;;;;;;11.68;5.85;;;;;;;18.94;71.80;100124.63;5057056;28;20036;-67
2023/09/13 03:40:16;;;;;;;10.18;5.80;;;;;;;19.01;71.45;100126.28;5057684;28;20063;-64
2023/09/13 03:42:41;;;;;;;12.55;6.63;;;;;;;18.93;71.95;100129.19;5057635;28;20356;-66
2023/09/13 03:45:07;;;;;;;15.05;5.70;;;;;;;18.79;72.93;100124.84;5058133;28;20037;-66
2023/09/13 03:47:32;;;;;;;9.30;5.43;;;;;;;18.66;73.85;100133.69;5058206;28;20231;-64
2023/09/13 03:49:58;;;;;;;11.18;6.50;;;;;;;18.65;73.98;100134.72;5058695;28;20062;-64
2023/09/13 03:52:23;;;;;;;12.15;6.25;;;;;;;18.60;74.31;100134.47;5058492;28;20082;-66
2023/09/13 03:54:48;;;;;;;10.52;5.45;;;;;;;18.48;75.19;100134.25;5058890;28;20029;-64
2023/09/13 03:57:14;;;;;;;12.20;6.10;;;;;;;18.43;75.61;100134.03;5058021;28;20326;-66
2023/09/13 03:59:39;;;;;;;9.07;5.70;;;;;;;18.52;75.00;100135.50;5057326;28;20041;-65
2023/09/13 04:02:05;;;;;;;14.35;6.35;;;;;;;18.67;74.63;100132.66;5057160;28;20655;-64
2023/09/13 04:04:30;;;;;;;11.48;5.97;;;;;;;18.71;73.94;100128.53;5057471;28;20048;-67
2023/09/13 04:06:56;;;;;;;8.10;5.43;;;;;;;18.78;73.17;100132.06;5058067;28;20029;-64
2023/09/13 04:09:22;;;;;;;12.05;6.32;;;;;;;18.78;73.49;100133.91;5058909;28;20070;-65
2023/09/13 04:11:48;;;;;;;7.30;5.75;;;;;;;18.78;74.02;100132.06;5057816;28;20044;-64
2023/09/13 04:14:13;;;;;;;9.15;6.28;;;;;;;18.77;73.99;100140.31;5057389;28;20041;-66
2023/09/13 04:16:39;;;;;;;13.73;5.88;;;;;;;18.58;75.04;100144.56;5056497;28;20236;-66
2023/09/13 04:19:04;;;;;;;13.27;6.43;;;;;;;18.36;76.97;100151.13;5055500;28;20040;-66
2023/09/13 04:21:29;;;;;;;10.82;5.97;;;;;;;18.37;77.19;100156.28;5057032;28;20211;-64
2023/09/13 04:23:58;;;;;;;8.82;6.53;;;;;;;18.47;76.81;100151.34;5057038;28;20036;-67
2023/09/13 04:26:23;;;;;;;15.95;6.30;;;;;;;18.50;77.29;100147.44;5057313;28;20135;-64
2023/09/13 04:28:49;;;;;;;10.30;5.93;;;;;;;18.57;76.62;100150.13;5057586;28;20033;-64
2023/09/13 04:31:15;;;;;;;9.02;6.40;;;;;;;18.64;76.33;100151.00;5057944;28;20035;-66
2023/09/13 04:33:51;;;;;;;11.30;6.05;;;;;;;18.56;76.36;100143.94;5057705;28;20102;-64
2023/09/13 04:36:16;;;;;;;8.90;5.65;;;;;;;18.59;76.32;100156.94;5056987;28;20041;-66
2023/09/13 04:38:42;;;;;;;13.93;6.88;;;;;;;18.73;75.60;100153.31;5057753;28;20040;-64
2023/09/13 04:41:13;;;;;;;7.63;5.47;;;;;;;18.85;74.77;100152.72;5058359;28;20068;-65
2023/09/13 04:43:38;;;;;;;11.32;6.68;;;;;;;18.85;74.54;100160.75;5057314;28;20060;-64
2023/09/13 04:46:04;;;;;;;8.95;6.13;;;;;;;18.91;74.15;100157.25;5056931;28;20071;-66
2023/09/13 04:48:29;;;;;;;13.10;6.22;;;;;;;18.81;74.42;100155.78;5056869;28;20025;-65
2023/09/13 04:50:55;;;;;;;15.05;6.20;;;;;;;18.93;74.41;100150.63;5057538;28;20049;-65
2023/09/13 04:53:20;;;;;;;13.63;6.07;;;;;;;18.92;75.08;100154.34;5057729;28;20044;-67
2023/09/13 04:55:45;;;;;;;10.27;6.43;;;;;;;18.85;75.24;100155.38;5055612;28;20334;-66
2023/09/13 04:58:11;;;;;;;9.77;5.80;;;;;;;18.94;75.39;100154.16;5056047;28;20087;-64
2023/09/13 05:00:36;;;;;;;12.38;6.72;;;;;;;19.08;75.25;100164.69;5057251;28;20044;-64
2023/09/13 05:03:02;;;;;;;11.77;5.97;;;;;;;19.08;75.28;100164.69;5056571;28;20039;-64
2023/09/13 05:05:27;;;;;;;13.95;6.68;;;;;;;19.18;74.77;100153.53;5055786;28;20060;-64
2023/09/13 05:07:54;;;;;;;14.38;6.18;;;;;;;19.18;74.70;100155.38;5055978;28;20033;-66
2023/09/13 05:10:20;;;;;;;12.70;6.93;;;;;;;19.16;74.51;100158.28;5056145;28;20032;-64
2023/09/13 05:12:48;;;;;;;11.85;6.25;;;;;;;19.04;74.89;100143.81;5055850;28;20040;-64
2023/09/13 05:15:13;;;;;;;10.00;6.25;;;;;;;19.17;73.94;100154.56;5055705;28;20314;-67
2023/09/13 05:17:39;;;;;;;10.90;6.18;;;;;;;19.28;74.10;100153.09;5055811;28;20079;-63
2023/09/13 05:20:06;;;;;;;12.93;6.53;;;;;;;19.44;73.38;100152.66;5055513;28;20104;-64
2023/09/13 05:22:32;;;;;;;12.80;5.97;;;;;;;19.61;73.09;100156.56;5056488;28;20223;-64
2023/09/13 05:24:58;;;;;;;14.23;6.97;;;;;;;19.78;72.23;100167.72;5055764;28;20045;-66
2023/09/13 05:27:24;;;;;;;7.85;5.93;;;;;;;19.87;71.99;100168.31;5055323;28;20035;-64
2023/09/13 05:29:49;;;;;;;7.45;5.30;;;;;;;19.93;71.76;100156.72;5054940;28;20033;-66
2023/09/13 05:32:15;;;;;;;9.13;5.60;;;;;;;20.07;71.71;100159.13;5055807;28;20029;-66
2023/09/13 05:34:40;;;;;;;13.32;5.82;;;;;;;20.29;71.35;100164.19;5055413;28;20036;-65
2023/09/13 05:37:06;;;;;;;12.27;6.85;;;;;;;20.52;70.22;100164.50;5055727;28;20031;-64
2023/09/13 05:39:31;;;;;;;17.05;7.60;;;;;;;20.71;69.97;100160.84;5055344;28;20041;-66
2023/09/13 05:41:57;;;;;;;8.27;5.95;;;;;;;20.82;69.40;100166.59;5055659;28;20057;-67
2023/09/13 05:44:24;;;;;;;12.40;5.95;;;;;;;20.94;69.06;100179.13;5055338;28;20318;-64
2023/09/13 05:46:52;;;;;;;15.18;5.80;;;;;;;21.06;70.36;100181.94;5055091;28;20290;-66
2023/09/13 05:49:18;;;;;;;9.48;6.00;;;;;;;21.20;69.74;100167.31;5055227;28;20227;-66
2023/09/13 05:51:43;;;;;;;8.18;5.50;;;;;;;21.32;69.57;100165.56;5061024;28;20041;-66
2023/09/13 05:54:09;;;;;;;7.10;5.43;;;;;;;21.47;68.21;100176.00;5055546;28;20055;-64
2023/09/13 05:56:34;;;;;;;6.18;5.57;;;;;;;21.50;66.72;100170.16;5054444;28;20356;-64
2023/09/13 05:58:59;;;;;;;10.07;6.22;;;;;;;21.49;66.76;100179.28;5055524;28;20049;-63
2023/09/13 06:01:25;;;;;;;9.15;6.10;;;;;;;21.69;66.56;100176.41;5055792;28;20037;-66
2023/09/13 06:03:50;;;;;;;8.40;5.88;;;;;;;21.82;66.94;100172.72;5055665;28;20033;-66
2023/09/13 06:06:16;;;;;;;8.88;6.53;;;;;;;21.88;66.08;100169.97;5055250;28;20039;-64
2023/09/13 06:08:41;;;;;;;11.70;6.88;;;;;;;22.21;65.17;100169.59;5055800;28;20021;-65
2023/09/13 06:11:07;;;;;;;13.25;6.60;;;;;;;22.36;63.87;100171.91;5055628;28;20366;-64
2023/09/13 06:13:33;;;;;;;9.43;7.45;;;;;;;22.46;62.99;100169.47;5053510;28;20036;-64
2023/09/13 06:15:58;;;;;;;10.05;7.75;;;;;;;22.62;62.73;100170.69;5053732;28;20036;-65
2023/09/13 06:18:23;;;;;;;9.90;7.70;;;;;;;;;;5054890;28;20033;-64
2023/09/13 06:20:49;;;;;;;12.15;8.55;;;;;;;22.97;62.98;100164.59;5054319;28;20135;-66
2023/09/13 06:23:52;;;;;;;13.88;7.82;;;;;;;23.18;61.70;100169.44;5054724;28;20032;-64
2023/09/13 06:26:18;;;;;;;14.43;8.20;;;;;;;23.28;61.57;100174.25;4953916;28;20066;-64
2023/09/13 06:28:43;;;;;;;13.05;8.05;;;;;;;23.28;62.45;100172.38;4953773;28;20092;-64
2023/09/13 06:31:09;;;;;;;12.98;8.35;;;;;;;23.43;61.45;100171.91;4999448;28;20254;-67
2023/09/13 06:33:34;;;;;;;9.35;7.45;;;;;;;23.53;60.61;100172.97;5054385;28;20029;-65
2023/09/13 06:36:00;;;;;;;12.63;7.47;;;;;;;23.63;60.21;100164.28;5054692;28;20102;-66
2023/09/13 06:38:25;;;;;;;11.77;7.55;;;;;;;23.81;59.73;100168.72;5054489;28;20103;-67
2023/09/13 06:40:51;;;;;;;10.20;7.30;;;;;;;23.93;58.46;100169.53;5054899;28;20044;-66
2023/09/13 06:43:18;;;;;;;13.40;8.48;;;;;;;24.04;56.80;100171.41;5059966;28;20096;-65
2023/09/13 06:45:45;;;;;;;11.45;8.10;;;;;;;24.12;57.20;100168.31;5059400;28;20041;-66
2023/09/13 06:48:10;;;;;;;12.43;7.43;;;;;;;24.18;56.18;100170.06;5059377;28;20047;-67
2023/09/13 06:50:36;;;;;;;7.38;6.22;;;;;;;24.29;54.76;100175.69;5059661;28;20218;-66
2023/09/13 06:53:02;;;;;;;7.40;5.53;;;;;;;24.25;52.67;100178.03;5079946;28;20048;-65
2023/09/13 06:55:27;;;;;;;9.55;5.95;;;;;;;24.27;52.90;100183.22;5079391;28;20033;-66
2023/09/13 06:57:53;;;;;;;6.72;5.50;;;;;;;24.37;50.18;100183.44;5079594;28;20035;-66
2023/09/13 07:00:19;;;;;;;7.38;5.63;;;;;;;24.42;48.36;100176.22;5079473;28;20051;-66
2023/09/13 07:02:45;;;;;;;9.48;6.63;;;;;;;24.56;48.40;100175.94;5079437;28;20033;-64
2023/09/13 07:05:10;;;;;;;11.30;7.05;;;;;;;24.68;48.79;100172.09;5079334;28;20040;-64
2023/09/13 07:07:36;;;;;;;9.00;6.47;;;;;;;24.66;48.16;100174.22;5079151;28;20029;-64
2023/09/13 07:10:03;;;;;;;6.85;5.80;;;;;;;24.68;48.66;100169.38;5079191;28;20042;-65
2023/09/13 07:12:28;;;;;;;5.30;3.72;;;;;;;24.83;46.72;100155.28;5078333;28;20047;-66
2023/09/13 07:14:54;;;;;;;8.32;4.07;;;;;;;24.84;46.55;100168.56;5079074;28;20362;-64
2023/09/13 07:17:19;;;;;;;4.90;4.05;;;;;;;24.66;48.02;100166.09;5078601;28;20322;-66
2023/09/13 07:19:45;;;;;;;6.07;4.00;;;;;;;24.86;47.50;100167.50;5078507;28;20044;-64
2023/09/13 07:22:10;;;;;;;7.18;4.22;;;;;;;25.04;46.60;100159.22;5078969;28;20102;-64
2023/09/13 07:24:36;;;;;;;6.32;4.32;;;;;;;25.10;46.33;100163.63;5078876;28;20223;-64
2023/09/13 07:27:01;;;;;;;6.75;4.40;;;;;;;25.14;45.01;100162.91;5078606;28;20319;-64
2023/09/13 07:29:27;;;;;;;4.90;4.10;;;;;;;25.38;45.70;100155.38;5079750;28;20326;-65
2023/09/13 07:31:52;;;;;;;10.55;4.43;;;;;;;25.45;46.50;100156.03;5080470;28;20047;-67
2023/09/13 07:34:18;;;;;;;8.00;3.83;;;;;;;25.68;44.02;100160.44;5079541;28;20073;-67
2023/09/13 07:36:43;;;;;;;7.28;5.15;;;;;;;25.79;42.75;100153.25;5079674;28;20032;-67
2023/09/13 07:39:10;;;;;;;8.13;4.45;;;;;;;25.72;44.63;100155.34;5079762;28;20048;-67
2023/09/13 07:41:35;;;;;;;5.07;4.00;;;;;;;25.82;44.46;100158.19;5079540;28;20044;-66
2023/09/13 07:44:01;;;;;;;7.72;4.25;;;;;;;26.01;43.22;100147.84;5079544;28;20290;-64
2023/09/13 07:46:26;;;;;;;7.07;4.63;;;;;;;26.11;43.50;100153.41;5079751;28;20044;-65
2023/09/13 07:48:51;;;;;;;6.95;4.80;;;;;;;26.21;43.57;100145.38;5080639;28;20028;-64
2023/09/13 07:51:17;;;;;;;7.63;4.60;;;;;;;26.18;41.80;100143.16;5079864;28;20444;-66
2023/09/13 07:53:43;;;;;;;11.32;4.75;;;;;;;26.04;43.08;100142.75;5067842;28;20040;-64
2023/09/13 07:56:09;;;;;;;8.55;4.60;;;;;;;26.15;42.91;100142.88;5068158;28;20048;-65
2023/09/13 07:58:35;;;;;;;8.45;3.90;;;;;;;26.22;42.75;100146.19;5065086;28;20314;-65
2023/09/13 08:01:00;;;;;;;6.40;4.38;;;;;;;26.30;42.25;100140.31;5066750;28;20032;-65
2023/09/13 08:03:26;;;;;;;6.65;4.00;;;;;;;26.38;41.84;100129.03;5066843;28;20346;-67
2023/09/13 08:05:51;;;;;;;7.18;4.57;;;;;;;26.50;41.54;100137.00;5064103;28;20315;-67
2023/09/13 08:08:22;;;;;;;9.32;4.55;;;;;;;26.45;41.24;100132.34;5067500;28;20036;-66
2023/09/13 08:10:52;;;;;;;6.13;4.07;;;;;;;26.53;42.20;100131.06;5064419;28;20087;-67
2023/09/13 08:13:22;;;;;;;6.15;3.97;;;;;;;26.65;41.25;100124.38;5069062;28;20056;-67
2023/09/13 08:15:49;;;;;;;4.82;4.05;;;;;;;26.55;40.54;100126.19;5063777;28;20075;-67
2023/09/13 08:18:14;;;;;;;8.68;4.00;;;;;;;26.65;42.08;100129.00;5065980;28;20087;-65
2023/09/13 08:20:40;;;;;;;7.90;3.83;;;;;;;26.74;41.39;100124.72;5066671;28;20037;-67
2023/09/13 08:23:05;;;;;;;5.05;4.07;;;;;;;26.80;42.01;100120.16;5059631;28;20055;-67
2023/09/13 08:25:31;;;;;;;7.95;4.35;;;;;;;26.65;40.91;100120.84;5060259;28;20036;-67
2023/09/13 08:27:56;;;;;;;5.57;4.05;;;;;;;26.52;40.95;100121.28;5067820;28;20419;-67
2023/09/13 08:30:21;;;;;;;5.57;4.18;;;;;;;26.72;42.56;100122.28;5065910;28;20034;-64
2023/09/13 08:32:47;;;;;;;5.10;4.15;;;;;;;26.93;41.29;100111.56;5067837;28;20040;-64
2023/09/13 08:35:12;;;;;;;8.90;4.78;;;;;;;27.06;41.25;100113.06;5065686;28;20055;-67
2023/09/13 08:37:38;;;;;;;6.75;4.40;;;;;;;27.06;41.89;100115.78;5072656;28;20131;-65
2023/09/13 08:40:04;;;;;;;4.90;3.80;;;;;;;27.10;41.43;100109.56;5063547;28;20043;-65
2023/09/13 08:42:30;;;;;;;6.78;4.13;;;;;;;27.01;40.99;100106.50;5069854;28;20036;-66
2023/09/13 08:44:58;;;;;;;5.00;4.05;;;;;;;26.89;40.26;100107.72;5063404;28;20326;-67
2023/09/13 08:47:29;;;;;;;5.35;4.18;;;;;;;26.82;41.30;100109.84;5067541;28;20072;-67
2023/09/13 08:49:56;;;;;;;10.50;4.55;;;;;;;26.73;41.45;100107.63;5062276;28;20056;-67
2023/09/13 08:52:22;;;;;;;7.78;4.65;;;;;;;26.88;42.70;100106.91;5065787;28;20060;-67
2023/09/13 08:54:49;;;;;;;7.47;4.18;;;;;;;26.98;41.37;100100.75;5059720;28;20599;-64
2023/09/13 08:57:15;;;;;;;5.97;3.95;;;;;;;26.86;41.79;100103.63;5059116;28;20052;-67
2023/09/13 08:59:41;;;;;;;7.45;4.07;;;;;;;26.76;41.83;100100.84;5058887;28;20230;-67
2023/09/13 09:02:12;;;;;;;8.00;4.35;;;;;;;26.76;42.11;100095.41;5049624;28;20045;-64
2023/09/13 09:04:37;;;;;;;6.28;3.72;;;;;;;26.63;41.81;100095.84;5057602;28;20043;-67
2023/09/13 09:07:05;;;;;;;5.85;4.22;;;;;;;26.63;41.77;100093.94;5059282;28;20069;-65
2023/09/13 09:09:31;;;;;;;4.93;4.20;;;;;;;26.73;40.99;100094.03;5058826;28;20033;-65
2023/09/13 09:11:59;;;;;;;6.75;4.25;;;;;;;26.80;41.05;100090.28;5058461;28;20036;-65
2023/09/13 09:14:32;;;;;;;9.90;4.05;;;;;;;26.72;40.88;100092.38;5057829;28;20043;-67
2023/09/13 09:17:02;;;;;;;4.63;3.70;;;;;;;26.65;40.27;100075.50;5058737;28;20061;-65
2023/09/13 09:19:29;;;;;;;6.82;4.35;;;;;;;26.61;40.35;100087.13;5055226;28;20045;-67
2023/09/13 09:21:57;;;;;;;8.85;4.68;;;;;;;26.58;40.43;100093.91;5059197;28;20064;-65
2023/09/13 09:24:23;;;;;;;5.47;3.95;;;;;;;26.63;39.57;100084.97;5058143;28;20041;-67
2023/09/13 09:26:48;;;;;;;7.60;4.25;;;;;;;26.64;39.27;100084.72;5057833;28;20243;-67
2023/09/13 09:29:18;;;;;;;6.82;4.47;;;;;;;26.58;39.40;100084.94;5058435;28;20051;-64
2023/09/13 09:31:43;;;;;;;6.82;4.15;;;;;;;26.54;39.46;100081.09;5058022;28;20291;-65
2023/09/13 09:34:10;;;;;;;7.68;4.18;;;;;;;26.31;38.80;100074.09;5057794;28;20033;-67
2023/09/13 09:36:42;;;;;;;6.80;3.97;;;;;;;26.23;40.00;100074.53;5057165;28;20060;-64
2023/09/13 09:39:08;;;;;;;6.35;4.78;;;;;;;26.18;41.99;100069.06;5058119;28;20037;-67
2023/09/13 09:41:35;;;;;;;8.50;4.45;;;;;;;26.15;41.74;100064.16;5057530;28;20079;-67
2023/09/13 09:44:02;;;;;;;6.22;3.78;;;;;;;26.16;41.94;100061.19;5057569;28;20048;-65
2023/09/13 09:46:27;;;;;;;6.38;4.05;;;;;;;26.21;40.94;100063.13;5058054;28;20041;-67
2023/09/13 09:48:54;;;;;;;7.55;3.90;;;;;;;26.16;41.11;100057.66;5058270;28;20117;-67
2023/09/13 09:51:20;;;;;;;5.50;4.75;;;;;;;26.18;41.13;100052.78;5063980;28;20055;-64
2023/09/13 09:53:46;;;;;;;5.05;4.00;;;;;;;26.14;40.91;100043.53;5078390;28;20099;-66
2023/09/13 09:56:13;;;;;;;6.60;4.07;;;;;;;26.24;40.99;100043.63;5078331;28;20039;-67
2023/09/13 09:58:38;;;;;;;10.95;4.47;;;;;;;26.30;40.93;100048.00;5077642;28;20036;-66
2023/09/13 10:01:04;;;;;;;7.18;4.22;;;;;;;26.29;42.01;100035.50;5078793;28;20105;-67
2023/09/13 10:03:34;;;;;;;7.72;4.18;;;;;;;26.34;41.74;100041.03;5078236;28;20100;-67
2023/09/13 10:06:06;;;;;;;5.97;4.28;;;;;;;26.28;41.42;100036.59;5077967;28;20043;-67
2023/09/13 10:08:43;;;;;;;7.43;4.78;;;;;;;26.45;40.57;100034.59;5078280;28;20028;-67
2023/09/13 10:11:10;;;;;;;7.78;3.88;;;;;;;26.49;40.28;100029.47;5077461;28;20040;-66
2023/09/13 10:13:36;;;;;;;6.28;4.13;;;;;;;26.48;40.63;100031.38;5077186;28;20036;-64
2023/09/13 10:16:05;;;;;;;8.48;4.22;;;;;;;26.53;40.57;100019.72;5075732;28;20029;-67
2023/09/13 10:18:35;;;;;;;9.43;4.03;;;;;;;26.55;40.02;100015.66;5076015;28;20392;-64
2023/09/13 10:21:04;;;;;;;8.45;4.38;;;;;;;26.60;41.51;100018.41;5075364;28;20035;-64
2023/09/13 10:23:39;;;;;;;6.25;4.00;;;;;;;26.66;40.51;100014.66;5075710;28;20086;-67
2023/09/13 10:26:07;;;;;;;5.88;3.95;;;;;;;26.69;41.07;100021.47;5075931;28;20032;-67
2023/09/13 10:28:35;;;;;;;6.88;4.18;;;;;;;26.75;41.35;100014.16;5067634;28;20108;-67
2023/09/13 10:31:03;;;;;;;6.68;3.92;;;;;;;26.78;40.17;100013.66;5076412;28;20307;-65
2023/09/13 10:33:32;;;;;;;4.93;4.03;;;;;;;26.69;39.95;100008.69;5077017;28;20036;-67
2023/09/13 10:36:00;;;;;;;6.72;4.60;;;;;;;26.63;40.42;99993.44;5076043;28;20039;-64
2023/09/13 10:38:43;;;;;;;5.55;3.97;;;;;;;26.58;39.20;100001.56;5076092;28;20279;-65
2023/09/13 10:41:13;;;;;;;6.03;3.83;;;;;;;26.64;39.69;100000.53;5077173;28;20036;-65
2023/09/13 10:43:40;;;;;;;7.03;4.07;;;;;;;26.63;39.20;99989.91;5076105;28;20036;-64
2023/09/13 10:46:08;;;;;;;5.65;3.63;;;;;;;26.58;39.62;99988.00;5075618;28;20029;-64
2023/09/13 10:48:34;;;;;;;6.40;4.30;;;;;;;26.62;39.32;99985.56;5075142;28;20043;-64
2023/09/13 10:51:01;;;;;;;7.65;4.47;;;;;;;26.65;39.18;99980.44;5073246;28;20075;-64
2023/09/13 10:53:26;;;;;;;8.40;4.18;;;;;;;26.63;40.40;99977.16;5075210;28;20055;-67
2023/09/13 10:55:53;;;;;;;8.20;4.22;;;;;;;26.71;41.00;99976.66;5075380;28;20383;-67
2023/09/13 10:58:20;;;;;;;6.38;3.90;;;;;;;26.73;40.04;99979.94;5074503;28;20040;-67
2023/09/13 11:00:47;;;;;;;10.80;5.07;;;;;;;26.78;39.49;99979.16;5075007;28;20139;-67
2023/09/13 11:03:13;;;;;;;5.65;3.53;;;;;;;26.85;38.47;99974.28;5075310;28;20036;-65
2023/09/13 11:05:39;;;;;;;4.38;3.90;;;;;;;26.83;38.86;99973.75;5074978;28;20510;-66
2023/09/13 11:08:07;;;;;;;5.68;3.70;;;;;;;26.93;38.32;99964.81;5075143;28;20051;-64
2023/09/13 11:10:33;;;;;;;7.47;3.92;;;;;;;26.93;38.52;99965.66;5074897;28;20028;-65
2023/09/13 11:13:12;;;;;;;19.63;5.20;;;;;;;26.92;37.93;99971.34;5075460;28;20051;-65
2023/09/13 11:15:53;;;;;;;7.38;5.10;;;;;;;26.89;37.82;99956.38;5074695;28;20102;-67
2023/09/13 11:18:19;;;;;;;7.65;3.63;;;;;;;27.01;38.34;99964.34;5074959;28;20084;-65
2023/09/13 11:20:44;;;;;;;5.20;3.90;;;;;;;27.03;39.40;99962.19;5075904;28;20025;-64
2023/09/13 11:23:14;;;;;;;15.32;4.35;;;;;;;27.04;39.39;99963.81;5075321;28;20243;-67